Time;durP1;ratioP1;P1;durP2;ratioP2;P2;SDS_P1;SDS_P2;PMS_P1;PMS_P2;Temp;Humidity;BMP_temperature;BMP_pressure;BME280_temperature;BME280_humidity;BME280_pressure;Samples;Min_cycle;Max_cycle;Signal;HPM_P1;HPM_P2
2021/04/22 00:02:17;;;;;;;9.70;7.00;;;;;;;10.82;60.99;100773.20;1739979;81;21166;-66
2021/04/22 00:04:44;;;;;;;8.38;6.45;;;;;;;10.80;60.98;100776.28;1737552;82;21103;-66
2021/04/22 00:07:15;;;;;;;8.48;6.78;;;;;;;10.76;61.14;100772.37;1710529;84;21285;-51
2021/04/22 00:09:42;;;;;;;;;;;;;;;10.73;61.07;100778.52;1741765;82;21700;-66
2021/04/22 00:12:10;;;;;;;6.22;4.72;;;;;;;10.64;61.16;100776.83;1739931;82;20157;-49
2021/04/22 00:14:38;;;;;;;7.90;6.08;;;;;;;10.67;60.79;100778.55;1739830;82;21115;-65
2021/04/22 00:17:08;;;;;;;11.12;7.53;;;;;;;10.63;60.70;100774.19;1722585;82;21617;-50
2021/04/22 00:19:36;;;;;;;8.03;6.47;;;;;;;10.59;60.29;100771.17;1740084;82;21144;-65
2021/04/22 00:22:05;;;;;;;9.93;6.72;;;;;;;10.49;60.02;100776.91;1768455;81;21181;-65
2021/04/22 00:24:32;;;;;;;8.30;5.87;;;;;;;10.37;59.88;100778.71;1767787;80;21154;-65
2021/04/22 00:27:00;;;;;;;9.28;6.78;;;;;;;10.25;59.93;100780.94;1768224;80;21591;-49
2021/04/22 00:29:28;;;;;;;9.60;5.00;;;;;;;10.18;59.99;100791.50;1768174;81;21273;-49
2021/04/22 00:31:57;;;;;;;6.62;5.03;;;;;;;10.16;59.98;100786.23;1768208;80;21195;-49
2021/04/22 00:34:24;;;;;;;7.03;4.40;;;;;;;10.20;60.24;100788.42;1762182;81;21141;-49
2021/04/22 00:36:52;;;;;;;7.60;4.40;;;;;;;10.22;60.72;100787.98;1764769;81;21275;-65
2021/04/22 00:39:20;;;;;;;5.65;4.42;;;;;;;10.20;61.26;100784.48;1768433;81;21128;-65
2021/04/22 00:41:47;;;;;;;8.80;5.90;;;;;;;10.23;61.39;100788.41;1768357;81;21172;-65
2021/04/22 00:44:15;;;;;;;8.75;6.15;;;;;;;10.21;61.32;100788.86;1748229;81;21089;-65
2021/04/22 00:46:42;;;;;;;9.48;5.55;;;;;;;10.20;61.22;100791.05;1767282;81;21118;-65
2021/04/22 00:49:11;;;;;;;9.18;4.58;;;;;;;10.20;61.27;100793.69;1738015;82;21158;-58
2021/04/22 00:51:40;;;;;;;6.80;4.25;;;;;;;10.20;61.27;100795.00;1723391;82;21181;-65
2021/04/22 00:54:08;;;;;;;8.93;4.17;;;;;;;10.21;61.30;100792.80;1761925;80;21126;-65
2021/04/22 00:56:36;;;;;;;10.58;3.67;;;;;;;10.21;61.32;100797.61;1767647;80;21149;-65
2021/04/22 00:59:04;;;;;;;4.22;3.20;;;;;;;10.21;61.25;100798.06;1768587;80;21150;-50
2021/04/22 01:01:33;;;;;;;3.92;2.83;;;;;;;10.21;61.20;100795.44;1768286;80;21201;-65
2021/04/22 01:04:02;;;;;;;7.03;2.15;;;;;;;10.19;61.28;100796.74;1768089;80;21128;-49
2021/04/22 01:06:31;;;;;;;16.42;2.20;;;;;;;10.19;61.59;100794.56;1758338;81;21122;-49
2021/04/22 01:09:05;;;;;;;3.45;2.52;;;;;;;10.17;62.02;100797.64;1737898;82;21166;-49
2021/04/22 01:11:33;;;;;;;4.72;3.60;;;;;;;10.13;62.17;100799.42;1741519;81;21205;-65
2021/04/22 01:14:01;;;;;;;3.98;3.15;;;;;;;10.11;62.20;100801.19;1768047;81;21252;-50
2021/04/22 01:16:29;;;;;;;6.05;3.40;;;;;;;10.11;62.04;100791.98;1761401;80;21133;-49
2021/04/22 01:18:56;;;;;;;10.30;3.50;;;;;;;10.11;61.84;100790.66;1727060;83;21165;-49
2021/04/22 01:21:25;;;;;;;5.75;3.05;;;;;;;10.08;61.61;100797.25;1723808;83;21146;-64
2021/04/22 01:23:53;;;;;;;3.70;2.90;;;;;;;10.06;61.75;100797.69;1736726;83;21590;-50
2021/04/22 01:26:24;;;;;;;4.10;3.05;;;;;;;10.03;61.68;100795.07;1715964;83;21111;-55
2021/04/22 01:28:51;;;;;;;4.58;3.35;;;;;;;10.01;61.61;100799.45;1698137;84;21575;-49
2021/04/22 01:31:19;;;;;;;3.80;2.98;;;;;;;10.00;61.50;100804.28;1729468;82;21135;-49
2021/04/22 01:33:47;;;;;;;4.30;3.08;;;;;;;9.99;61.17;100801.22;1757605;81;21150;-49
2021/04/22 01:36:17;;;;;;;3.98;2.95;;;;;;;9.97;60.92;100799.47;1758243;81;21151;-64
2021/04/22 01:38:44;;;;;;;5.03;3.00;;;;;;;9.96;60.83;100803.39;1758404;80;21176;-49
2021/04/22 01:41:13;;;;;;;2.98;2.25;;;;;;;9.94;60.93;100799.47;1758477;81;21195;-49
2021/04/22 01:43:41;;;;;;;4.03;2.45;;;;;;;9.94;61.00;100809.09;1757170;81;21147;-49
2021/04/22 01:46:08;;;;;;;3.80;2.70;;;;;;;9.91;60.95;100802.56;1758641;81;21174;-64
2021/04/22 01:48:36;;;;;;;3.40;2.65;;;;;;;9.88;60.84;100806.52;1758124;80;21168;-65
2021/04/22 01:51:06;;;;;;;3.52;2.45;;;;;;;9.85;60.83;100809.15;1758148;81;21214;-49
2021/04/22 01:53:34;;;;;;;3.15;2.60;;;;;;;9.84;60.92;100810.89;1758064;81;21174;-49
2021/04/22 01:56:02;;;;;;;2.55;1.95;;;;;;;9.82;61.07;100813.53;1758409;81;21253;-64
2021/04/22 01:58:31;;;;;;;3.25;2.17;;;;;;;9.81;61.19;100814.41;1758507;80;21107;-62
2021/04/22 02:00:59;;;;;;;2.15;1.60;;;;;;;9.81;61.37;100817.46;1758352;81;21174;-49
2021/04/22 02:03:30;;;;;;;2.02;1.55;;;;;;;9.78;61.51;100823.61;1757309;81;21661;-64
2021/04/22 02:06:02;;;;;;;2.27;1.62;;;;;;;9.75;61.69;100820.98;1758533;81;21178;-64
2021/04/22 02:08:29;;;;;;;3.80;1.55;;;;;;;9.72;61.91;100825.36;1754637;81;21154;-64
2021/04/22 02:10:58;;;;;;;2.22;1.55;;;;;;;9.71;62.01;100827.58;1757507;81;21296;-64
2021/04/22 02:13:26;;;;;;;2.83;1.87;;;;;;;9.70;62.08;100829.77;1758411;80;21179;-64
2021/04/22 02:15:54;;;;;;;2.15;1.60;;;;;;;9.70;62.20;100821.44;1754605;81;21145;-49
2021/04/22 02:18:23;;;;;;;2.45;1.67;;;;;;;9.70;62.29;100828.00;1744852;82;21196;-49
2021/04/22 02:20:51;;;;;;;3.02;1.80;;;;;;;9.69;62.49;100825.39;1744800;82;21179;-50
2021/04/22 02:23:21;;;;;;;3.08;2.17;;;;;;;9.72;62.62;100824.05;1742955;81;21317;-49
2021/04/22 02:25:49;;;;;;;3.85;2.42;;;;;;;9.75;62.64;100820.98;1745095;82;21289;-49
2021/04/22 02:28:17;;;;;;;3.83;2.60;;;;;;;9.77;62.60;100823.18;1745003;82;21578;-50
2021/04/22 02:30:45;;;;;;;3.50;2.45;;;;;;;9.73;62.47;100824.06;1729743;82;21181;-49
2021/04/22 02:33:16;;;;;;;4.45;2.75;;;;;;;9.75;62.46;100831.92;1715234;84;21146;-63
2021/04/22 02:35:47;;;;;;;3.95;2.95;;;;;;;9.76;62.44;100837.20;1743140;82;21166;-49
2021/04/22 02:38:15;;;;;;;4.70;2.80;;;;;;;9.77;62.29;100835.01;1744967;82;21212;-63
2021/04/22 02:40:45;;;;;;;5.72;3.45;;;;;;;9.77;62.08;100832.80;1744431;82;21206;-63
2021/04/22 02:43:18;;;;;;;4.03;2.87;;;;;;;9.69;62.17;100834.59;1744751;81;21271;-63
2021/04/22 02:45:52;;;;;;;5.15;2.90;;;;;;;9.69;62.08;100831.97;1745182;82;21553;-49
2021/04/22 02:48:22;;;;;;;4.70;2.87;;;;;;;9.66;61.87;100835.45;1744268;82;21187;-63
2021/04/22 02:50:53;;;;;;;14.35;4.22;;;;;;;9.64;61.67;100838.52;1715920;83;21570;-49
2021/04/22 02:53:21;;;;;;;19.30;4.45;;;;;;;9.63;61.58;100844.66;1734548;82;21167;-49
2021/04/22 02:55:50;;;;;;;9.10;5.00;;;;;;;9.58;61.73;100844.67;1745101;82;21181;-49
2021/04/22 02:58:20;;;;;;;7.85;5.08;;;;;;;9.58;61.80;100845.98;1744683;82;21126;-49
2021/04/22 03:00:49;;;;;;;7.85;5.20;;;;;;;9.56;61.65;100843.80;1744263;82;21201;-63
2021/04/22 03:03:16;;;;;;;7.65;5.67;;;;;;;9.45;61.89;100845.55;1744741;82;21181;-63
2021/04/22 03:05:44;;;;;;;6.62;4.83;;;;;;;9.35;62.23;100836.34;1744838;81;21308;-49
2021/04/22 03:08:13;;;;;;;9.05;4.90;;;;;;;9.31;62.21;100838.53;1744248;81;21211;-63
2021/04/22 03:10:40;;;;;;;7.15;4.28;;;;;;;9.28;62.31;100845.55;1734741;82;21138;-62
2021/04/22 03:13:09;;;;;;;12.28;4.22;;;;;;;9.28;61.96;100842.92;1730042;82;21284;-63
2021/04/22 03:15:38;;;;;;;8.35;5.10;;;;;;;9.20;62.24;100842.92;1728741;82;21102;-49
2021/04/22 03:18:08;;;;;;;9.03;4.17;;;;;;;9.20;62.19;100846.86;1732224;82;21179;-63
2021/04/22 03:20:37;;;;;;;5.62;4.22;;;;;;;9.18;62.25;100852.55;1731691;82;21640;-49
2021/04/22 03:23:04;;;;;;;7.15;4.25;;;;;;;9.20;62.40;100854.29;1731769;82;21098;-49
2021/04/22 03:25:32;;;;;;;7.75;4.30;;;;;;;9.25;62.40;100856.05;1731516;82;21182;-49
2021/04/22 03:28:00;;;;;;;11.48;4.80;;;;;;;9.29;62.43;100852.55;1728620;82;21146;-62
2021/04/22 03:30:29;;;;;;;5.45;4.75;;;;;;;9.31;62.28;100861.31;1736696;82;21150;-62
2021/04/22 03:32:57;;;;;;;6.05;4.58;;;;;;;9.33;62.47;100856.48;1732241;82;21203;-50
2021/04/22 03:35:25;;;;;;;7.37;4.65;;;;;;;9.43;62.45;100863.06;1729227;82;21126;-50
2021/04/22 03:37:53;;;;;;;8.35;5.08;;;;;;;9.51;62.41;100863.94;1732670;81;21134;-51
2021/04/22 03:40:23;;;;;;;14.65;5.03;;;;;;;9.49;62.38;100867.00;1732711;82;21169;-49
2021/04/22 03:42:51;;;;;;;14.87;5.90;;;;;;;9.56;62.62;100867.45;1729924;82;21146;-62
2021/04/22 03:45:18;;;;;;;11.57;4.92;;;;;;;9.65;62.63;100859.56;1719557;82;21601;-63
2021/04/22 03:47:46;;;;;;;7.78;5.03;;;;;;;9.73;62.44;100866.12;1730018;82;21154;-49
2021/04/22 03:50:15;;;;;;;7.42;4.47;;;;;;;9.84;62.37;100868.73;1745355;82;21154;-49
2021/04/22 03:52:43;;;;;;;10.08;4.05;;;;;;;9.94;62.24;100869.58;1744061;81;21118;-49
2021/04/22 03:55:13;;;;;;;6.87;4.37;;;;;;;10.04;62.04;100867.37;1744978;82;21202;-49
2021/04/22 03:57:41;;;;;;;5.67;4.40;;;;;;;10.15;61.83;100875.27;1744952;82;21816;-62
2021/04/22 04:00:11;;;;;;;9.73;3.45;;;;;;;10.21;61.68;100873.90;1744135;82;21098;-50
2021/04/22 04:02:39;;;;;;;5.75;3.50;;;;;;;10.28;61.64;100877.41;1730005;82;21668;-61
2021/04/22 04:05:08;;;;;;;8.23;4.25;;;;;;;10.32;61.63;100876.95;1731966;82;21640;-61
2021/04/22 04:07:36;;;;;;;6.53;4.17;;;;;;;10.37;61.76;100886.59;1745249;82;21611;-62
2021/04/22 04:10:07;;;;;;;5.70;3.67;;;;;;;10.48;61.89;100896.22;1738415;82;21629;-51
2021/04/22 04:12:36;;;;;;;5.22;3.50;;;;;;;10.50;62.04;100893.14;1731797;82;21171;-61
2021/04/22 04:15:07;;;;;;;6.25;4.30;;;;;;;10.56;62.15;100895.75;1736864;82;21589;-50
2021/04/22 04:17:35;;;;;;;9.80;3.62;;;;;;;10.62;62.36;100902.31;1728934;82;21181;-50
2021/04/22 04:20:07;;;;;;;13.15;4.83;;;;;;;10.66;62.64;100905.80;1742335;82;21138;-50
2021/04/22 04:22:35;;;;;;;16.93;3.95;;;;;;;10.68;62.95;100915.88;1735918;82;21198;-50
2021/04/22 04:25:05;;;;;;;10.80;4.28;;;;;;;10.73;63.19;100914.11;1732323;82;21646;-62
2021/04/22 04:27:32;;;;;;;9.05;4.05;;;;;;;10.78;63.35;100915.42;1740245;81;21150;-51
2021/04/22 04:30:00;;;;;;;6.92;4.75;;;;;;;10.83;63.67;100908.34;1731677;82;21103;-52
2021/04/22 04:32:28;;;;;;;14.98;4.87;;;;;;;10.86;63.92;100918.87;1744338;82;21143;-51
2021/04/22 04:34:56;;;;;;;6.22;5.17;;;;;;;10.97;64.25;100926.28;1744782;82;21173;-50
2021/04/22 04:37:23;;;;;;;8.68;5.10;;;;;;;11.10;64.44;100922.27;1743879;82;21623;-51
2021/04/22 04:39:51;;;;;;;18.55;5.65;;;;;;;11.21;64.63;100920.46;1744501;82;21304;-63
2021/04/22 04:42:19;;;;;;;17.90;5.70;;;;;;;11.30;65.11;100915.10;1735155;82;21565;-63
2021/04/22 04:44:47;;;;;;;21.25;6.15;;;;;;;11.40;65.01;100917.69;1714881;84;21604;-63
2021/04/22 04:47:14;;;;;;;12.68;6.03;;;;;;;11.50;65.20;100914.10;1714983;84;21182;-51
2021/04/22 04:49:43;;;;;;;8.35;6.03;;;;;;;11.62;65.35;100917.08;1737475;82;21174;-63
2021/04/22 04:52:10;;;;;;;13.40;6.28;;;;;;;11.74;65.59;100917.41;1744515;82;21140;-63
2021/04/22 04:54:39;;;;;;;10.23;8.10;;;;;;;11.91;66.15;100915.97;1744476;82;21185;-51
2021/04/22 04:57:08;;;;;;;13.72;9.28;;;;;;;12.10;66.25;100921.98;1731996;82;21181;-50
2021/04/22 04:59:36;;;;;;;11.43;9.47;;;;;;;12.28;66.48;100922.23;1715073;84;21138;-51
2021/04/22 05:02:04;;;;;;;10.85;8.35;;;;;;;12.52;66.66;100922.83;1714849;84;21154;-51
2021/04/22 05:04:32;;;;;;;11.08;8.78;;;;;;;12.62;67.17;100916.98;1714807;84;21144;-64
2021/04/22 05:07:00;;;;;;;12.93;9.55;;;;;;;12.80;66.95;100919.88;1718027;82;21133;-64
2021/04/22 05:09:28;;;;;;;12.05;8.83;;;;;;;12.98;67.11;100920.08;1715161;84;21169;-51
2021/04/22 05:11:55;;;;;;;11.75;9.78;;;;;;;13.16;66.86;100923.34;1714923;82;21174;-52
2021/04/22 05:14:23;;;;;;;12.25;9.35;;;;;;;13.29;66.69;100922.27;1714858;83;21599;-64
2021/04/22 05:16:51;;;;;;;10.18;8.73;;;;;;;13.43;66.82;100927.38;1736898;82;21174;-52
2021/04/22 05:19:19;;;;;;;43.70;10.50;;;;;;;13.58;67.12;100923.61;1744894;82;21153;-52
2021/04/22 05:21:47;;;;;;;13.70;9.90;;;;;;;13.76;67.47;100926.86;1718421;82;21158;-53
2021/04/22 05:24:15;;;;;;;14.13;9.38;;;;;;;13.97;67.00;100925.63;1716175;82;21606;-64
2021/04/22 05:26:43;;;;;;;11.18;8.35;;;;;;;14.14;66.70;100921.34;1728505;82;21162;-65
2021/04/22 05:29:11;;;;;;;10.53;8.88;;;;;;;14.26;65.91;100921.55;1715588;84;21317;-53
2021/04/22 05:31:39;;;;;;;10.58;8.28;;;;;;;14.39;66.06;100924.40;1715269;84;21181;-65
2021/04/22 05:34:07;;;;;;;8.20;7.15;;;;;;;14.51;65.34;100917.12;1721262;82;21146;-66
2021/04/22 05:36:34;;;;;;;8.80;7.58;;;;;;;14.62;65.14;100920.40;1715247;84;21213;-53
2021/04/22 05:39:04;;;;;;;8.33;6.67;;;;;;;14.76;64.67;100920.61;1715629;84;21193;-53
2021/04/22 05:41:33;;;;;;;8.60;7.35;;;;;;;14.90;64.10;100922.52;1715485;84;21608;-53
2021/04/22 05:44:02;;;;;;;11.97;6.95;;;;;;;14.09;66.76;100929.81;1736986;82;21139;-53
2021/04/22 05:46:30;;;;;;;8.00;6.58;;;;;;;14.97;64.89;100932.09;1717352;82;21589;-66
2021/04/22 05:48:58;;;;;;;7.87;6.03;;;;;;;15.30;64.24;100924.71;1715469;82;21134;-54
2021/04/22 05:51:26;;;;;;;9.28;5.67;;;;;;;15.49;62.74;100924.29;1716931;82;21190;-67
2021/04/22 05:53:54;;;;;;;9.95;5.15;;;;;;;15.68;62.67;100924.70;1744213;82;21288;-53
2021/04/22 05:56:22;;;;;;;5.55;4.20;;;;;;;15.58;61.80;100936.01;1745033;81;21605;-66
2021/04/22 05:58:49;;;;;;;5.85;4.80;;;;;;;15.94;60.72;100920.09;1745242;82;21185;-54
2021/04/22 06:01:17;;;;;;;12.73;9.08;;;;;;;16.11;59.62;100924.96;1744993;82;21139;-53
2021/04/22 06:03:45;;;;;;;7.78;6.10;;;;;;;16.21;57.19;100925.58;1738885;82;21165;-53
2021/04/22 06:06:12;;;;;;;7.37;6.20;;;;;;;16.38;57.88;100920.27;1715541;84;21185;-53
2021/04/22 06:08:41;;;;;;;7.25;5.42;;;;;;;16.49;57.65;100920.38;1715638;83;21185;-53
2021/04/22 06:11:10;;;;;;;6.92;4.53;;;;;;;16.65;57.26;100922.60;1736792;82;21132;-66
2021/04/22 06:13:38;;;;;;;6.87;4.65;;;;;;;16.78;56.97;100914.66;1721244;82;21187;-67
2021/04/22 06:16:07;;;;;;;8.80;4.10;;;;;;;16.93;56.06;100923.10;1715360;84;21122;-54
2021/04/22 06:18:35;;;;;;;5.92;5.15;;;;;;;17.04;55.86;100921.47;1713816;82;21236;-66
2021/04/22 06:21:04;;;;;;;9.45;7.58;;;;;;;17.11;54.74;100919.03;1741458;82;21194;-66
2021/04/22 06:23:31;;;;;;;21.97;19.80;;;;;;;17.22;54.17;100919.58;1739278;82;21737;-53
2021/04/22 06:26:00;;;;;;;7.17;6.45;;;;;;;17.34;53.67;100917.46;1741637;82;21333;-54
2021/04/22 06:28:27;;;;;;;6.65;5.30;;;;;;;17.46;53.69;100921.03;1741543;81;21143;-54
2021/04/22 06:30:56;;;;;;;6.05;5.03;;;;;;;17.57;53.45;100922.03;1740790;82;21159;-54
2021/04/22 06:33:24;;;;;;;5.80;4.62;;;;;;;17.72;53.79;100921.09;1741471;81;21318;-53
2021/04/22 06:35:52;;;;;;;8.18;4.37;;;;;;;17.83;53.07;100912.30;1741592;82;21618;-66
2021/04/22 06:38:20;;;;;;;5.25;4.08;;;;;;;17.91;52.70;100914.68;1741342;81;21191;-54
2021/04/22 06:40:48;;;;;;;4.12;3.58;;;;;;;18.04;52.70;100916.52;1741420;82;21640;-65
2021/04/22 06:43:16;;;;;;;3.92;3.20;;;;;;;18.17;52.05;100910.28;1712802;82;21193;-66
2021/04/22 06:45:45;;;;;;;4.85;3.10;;;;;;;18.24;51.46;100914.00;1713256;82;21202;-54
2021/04/22 06:48:14;;;;;;;3.80;2.87;;;;;;;18.32;50.00;100912.41;1741534;82;21158;-54
2021/04/22 06:50:43;;;;;;;4.10;3.05;;;;;;;18.38;48.72;100912.16;1725244;82;21116;-54
2021/04/22 06:53:11;;;;;;;2.72;2.02;;;;;;;18.56;49.26;100915.09;1712323;84;21167;-66
2021/04/22 06:55:40;;;;;;;4.22;3.10;;;;;;;18.66;47.44;100911.60;1723921;82;21145;-67
2021/04/22 06:58:09;;;;;;;3.98;2.90;;;;;;;18.80;48.58;100916.41;1741535;82;21127;-55
2021/04/22 07:00:39;;;;;;;3.30;2.47;;;;;;;18.92;47.40;100907.09;1740897;82;21111;-66
2021/04/22 07:03:07;;;;;;;5.12;3.33;;;;;;;19.03;45.95;100907.55;1741716;81;21332;-54
2021/04/22 07:05:36;;;;;;;5.97;3.52;;;;;;;19.09;45.23;100907.79;1741505;82;21165;-66
2021/04/22 07:08:06;;;;;;;4.35;2.85;;;;;;;19.17;45.58;100911.87;1741523;82;21185;-65
2021/04/22 07:10:34;;;;;;;2.90;2.17;;;;;;;19.31;44.79;100907.31;1712663;82;21445;-54
2021/04/22 07:13:04;;;;;;;3.42;2.37;;;;;;;19.49;44.18;100904.84;1715608;82;21232;-67
2021/04/22 07:15:34;;;;;;;3.80;2.47;;;;;;;19.70;44.21;100902.19;1741719;82;21179;-54
2021/04/22 07:18:04;;;;;;;3.30;2.33;;;;;;;19.79;43.73;100905.81;1743199;81;21296;-67
2021/04/22 07:20:32;;;;;;;3.10;2.17;;;;;;;20.03;44.93;100909.74;1722767;82;21137;-65
2021/04/22 07:23:00;;;;;;;4.10;2.75;;;;;;;20.39;44.62;100906.37;1730073;82;21559;-67
2021/04/22 07:25:32;;;;;;;4.92;2.50;;;;;;;20.59;43.40;100902.78;1745175;82;21166;-54
2021/04/22 07:28:03;;;;;;;5.58;2.67;;;;;;;20.65;42.95;100905.18;1744544;82;21135;-67
2021/04/22 07:30:30;;;;;;;;;;;;;;;20.77;42.40;100908.23;1747698;82;21126;-66
2021/04/22 07:32:58;;;;;;;3.37;2.33;;;;;;;20.87;42.51;100910.03;1745107;82;20157;-66
2021/04/22 07:35:26;;;;;;;4.37;2.55;;;;;;;20.93;41.20;100911.93;1745067;82;21296;-65
2021/04/22 07:37:54;;;;;;;2.70;1.85;;;;;;;21.08;42.12;100910.81;1744380;82;21158;-67
2021/04/22 07:40:24;;;;;;;4.78;2.22;;;;;;;21.15;40.36;100918.95;1744950;82;21577;-66
2021/04/22 07:42:52;;;;;;;6.80;2.52;;;;;;;21.12;39.84;100915.08;1745261;81;21169;-54
2021/04/22 07:45:27;;;;;;;3.33;2.42;;;;;;;21.07;40.62;100907.74;1745009;82;21617;-54
2021/04/22 07:47:55;;;;;;;2.80;2.00;;;;;;;21.25;40.95;100908.17;1744597;81;21158;-54
2021/04/22 07:50:24;;;;;;;3.65;2.20;;;;;;;21.39;40.54;100904.84;1745164;82;21142;-66
2021/04/22 07:52:51;;;;;;;3.35;2.25;;;;;;;21.49;40.34;100913.73;1745193;82;21596;-66
2021/04/22 07:55:24;;;;;;;3.15;2.27;;;;;;;21.62;39.58;100911.36;1745222;82;21166;-55
2021/04/22 07:57:51;;;;;;;2.80;1.92;;;;;;;21.79;40.03;100905.14;1744135;81;21178;-67
2021/04/22 08:00:21;;;;;;;3.60;1.70;;;;;;;21.90;39.19;100901.91;1744936;81;21155;-66
2021/04/22 08:02:50;;;;;;;2.20;1.67;;;;;;;22.02;38.61;100903.07;1745138;82;21250;-54
2021/04/22 08:05:21;;;;;;;5.12;1.70;;;;;;;22.15;37.29;100906.85;1737954;82;21182;-54
2021/04/22 08:07:50;;;;;;;2.17;1.70;;;;;;;22.23;36.44;100901.96;1725955;82;21610;-54
2021/04/22 08:10:22;;;;;;;3.70;1.92;;;;;;;22.31;36.39;100908.70;1744974;82;21169;-54
2021/04/22 08:12:49;;;;;;;2.80;1.90;;;;;;;22.43;36.15;100904.03;1745210;82;21153;-54
2021/04/22 08:15:17;;;;;;;3.17;1.62;;;;;;;22.53;35.62;100910.67;1744409;81;21130;-65
2021/04/22 08:17:45;;;;;;;2.25;1.50;;;;;;;22.53;34.60;100905.30;1743573;82;21188;-54
2021/04/22 08:20:18;;;;;;;3.00;2.12;;;;;;;22.58;34.17;100896.53;1768515;81;21132;-54
2021/04/22 08:22:46;;;;;;;9.05;5.53;;;;;;;22.49;34.75;100901.05;1768618;81;21161;-54
2021/04/22 08:25:20;;;;;;;9.13;5.95;;;;;;;22.45;35.38;100896.80;1738029;82;21117;-55
2021/04/22 08:27:49;;;;;;;5.03;3.33;;;;;;;22.56;36.02;100904.26;1768596;81;21188;-54
2021/04/22 08:30:21;;;;;;;4.17;2.85;;;;;;;22.76;36.17;100895.11;1768485;81;21150;-54
2021/04/22 08:32:50;;;;;;;3.42;2.70;;;;;;;22.89;36.20;100906.05;1740174;82;21724;-66
2021/04/22 08:35:17;;;;;;;3.00;2.30;;;;;;;23.05;36.09;100898.00;1767779;81;21548;-55
2021/04/22 08:37:45;;;;;;;3.70;2.60;;;;;;;23.02;35.41;100902.20;1768489;81;21718;-66
2021/04/22 08:40:14;;;;;;;3.60;2.10;;;;;;;22.93;35.73;100900.02;1739982;82;21613;-55
2021/04/22 08:42:42;;;;;;;6.70;3.17;;;;;;;22.79;34.99;100896.28;1746861;82;21133;-56
2021/04/22 08:45:12;;;;;;;16.55;3.52;;;;;;;22.68;35.56;100896.89;1765535;81;21276;-55
2021/04/22 08:59:56;;;;;;;4.17;3.00;;;;;;;23.45;34.67;100880.95;1853157;77;22174;-53
2021/04/22 09:02:25;;;;;;;3.65;2.72;;;;;;;23.57;34.51;100882.55;1802998;78;21601;-65
2021/04/22 09:04:53;;;;;;;5.08;3.70;;;;;;;23.67;34.06;100886.88;1756099;82;21617;-54
2021/04/22 09:07:22;;;;;;;4.03;3.20;;;;;;;23.81;33.73;100884.70;1763573;79;21090;-66
2021/04/22 09:09:51;;;;;;;5.45;3.20;;;;;;;23.76;33.73;100883.16;1777795;80;21123;-65
2021/04/22 09:12:21;;;;;;;4.25;2.83;;;;;;;23.80;33.36;100880.29;1781058;79;21579;-53
2021/04/22 09:15:10;;;;;;;3.62;2.58;;;;;;;23.83;33.03;100890.39;1779437;79;21691;-66
2021/04/22 09:17:39;;;;;;;4.58;3.40;;;;;;;23.84;32.16;100876.00;1793793;79;21135;-65
2021/04/22 09:20:11;;;;;;;6.45;2.90;;;;;;;23.85;32.73;100879.53;1788602;80;21099;-54
2021/04/22 09:22:43;;;;;;;2.95;2.00;;;;;;;23.75;32.68;100880.09;1788908;79;21111;-54
2021/04/22 09:25:20;;;;;;;2.90;2.05;;;;;;;23.70;31.62;100879.98;1790980;79;21123;-65
2021/04/22 09:27:48;;;;;;;5.00;2.40;;;;;;;23.71;31.46;100875.84;1791353;79;21180;-66
2021/04/22 09:30:19;;;;;;;3.05;2.45;;;;;;;23.84;31.46;100876.46;1790679;79;21143;-54
2021/04/22 09:32:47;;;;;;;3.85;2.60;;;;;;;24.01;31.54;100877.69;1792836;79;21657;-54
2021/04/22 09:35:15;;;;;;;3.62;2.80;;;;;;;24.10;31.24;100871.34;1782866;79;21147;-66
2021/04/22 09:37:50;;;;;;;6.60;2.40;;;;;;;24.16;30.80;100877.22;1730283;82;21135;-54
2021/04/22 09:40:32;;;;;;;3.87;2.62;;;;;;;24.14;30.32;100867.50;1743493;82;21147;-54
2021/04/22 09:43:03;;;;;;;4.33;2.40;;;;;;;24.15;31.26;100870.58;1737521;82;21242;-65
2021/04/22 09:45:32;;;;;;;3.65;2.42;;;;;;;23.97;31.23;100860.45;1723910;83;21154;-53
2021/04/22 09:48:28;;;;;;;3.25;2.40;;;;;;;24.09;30.67;100865.11;1728903;83;21130;-65
2021/04/22 09:50:56;;;;;;;3.33;2.22;;;;;;;24.04;30.91;100856.46;1734297;83;21534;-66
2021/04/22 09:53:26;;;;;;;3.33;2.52;;;;;;;24.10;30.23;100856.55;1730874;81;21645;-54
2021/04/22 09:55:59;;;;;;;3.47;2.70;;;;;;;24.41;30.79;100846.58;1758166;81;21147;-54
2021/04/22 09:58:29;;;;;;;4.85;3.02;;;;;;;24.41;30.79;100846.58;1709976;83;21159;-65
2021/04/22 10:14:55;;;;;;;3.02;2.40;;;;;;;24.73;30.54;100839.64;1820061;77;22182;-53
2021/04/22 10:17:24;;;;;;;3.25;2.42;;;;;;;24.72;30.63;100839.26;1784264;80;21597;-53
2021/04/22 10:20:11;;;;;;;3.60;2.30;;;;;;;24.72;30.44;100848.68;1787247;80;21509;-64
2021/04/22 10:22:43;;;;;;;12.75;3.15;;;;;;;24.75;30.08;100839.06;1796487;80;21541;-65
2021/04/22 10:25:16;;;;;;;3.30;2.47;;;;;;;24.94;30.75;100830.18;1796208;80;21166;-66
2021/04/22 10:27:43;;;;;;;3.42;2.58;;;;;;;25.07;29.86;100840.11;1796033;80;21140;-66
2021/04/22 10:30:16;;;;;;;5.45;2.83;;;;;;;24.99;29.80;100845.14;1796263;80;21512;-55
2021/04/22 10:32:43;;;;;;;3.17;2.30;;;;;;;24.82;29.79;100844.44;1780732;80;21150;-66
2021/04/22 10:35:20;;;;;;;2.95;2.20;;;;;;;24.63;30.30;100839.34;1785319;80;21140;-55
2021/04/22 10:37:50;;;;;;;4.35;2.40;;;;;;;24.56;30.78;100842.89;1770933;80;21190;-67
2021/04/22 10:40:20;;;;;;;3.35;2.65;;;;;;;24.46;30.60;100849.84;1763723;81;21570;-55
2021/04/22 10:42:48;;;;;;;3.10;2.40;;;;;;;24.30;31.56;100844.55;1774390;80;21731;-54
2021/04/22 10:45:17;;;;;;;5.42;2.72;;;;;;;24.44;31.26;100849.08;1786863;80;21125;-55
2021/04/22 10:47:45;;;;;;;4.55;2.60;;;;;;;24.50;31.46;100836.09;1779785;80;21637;-55
2021/04/22 10:50:27;;;;;;;10.15;3.60;;;;;;;24.59;31.51;100834.63;1794190;80;21106;-65
2021/04/22 10:52:55;;;;;;;3.35;2.62;;;;;;;24.71;30.83;100834.34;1796399;80;21180;-66
2021/04/22 10:55:28;;;;;;;2.95;2.42;;;;;;;24.56;30.98;100834.82;1791366;80;21114;-54
2021/04/22 10:57:59;;;;;;;3.52;2.50;;;;;;;24.42;31.19;100833.52;1730539;82;21627;-66
2021/04/22 11:00:29;;;;;;;3.33;2.30;;;;;;;24.22;31.28;100845.53;1739485;82;21158;-54
2021/04/22 11:02:58;;;;;;;4.03;2.75;;;;;;;24.03;30.66;100819.78;1715334;82;21367;-54
2021/04/22 11:05:33;;;;;;;3.40;2.70;;;;;;;24.01;32.27;100833.80;1734662;83;21209;-66
2021/04/22 11:08:06;;;;;;;3.08;2.52;;;;;;;24.22;30.95;100825.36;1743160;81;21734;-53
2021/04/22 11:10:43;;;;;;;4.25;2.20;;;;;;;24.33;30.78;100826.87;1742908;82;21170;-65
2021/04/22 11:13:27;;;;;;;3.67;2.90;;;;;;;24.50;31.45;100822.64;1733858;82;21217;-54
2021/04/22 11:15:59;;;;;;;3.33;2.40;;;;;;;24.54;30.60;100818.41;1727126;82;21551;-53
2021/04/22 11:18:45;;;;;;;3.70;2.70;;;;;;;24.60;30.78;100812.14;1726445;83;21204;-66
2021/04/22 11:21:33;;;;;;;3.72;2.60;;;;;;;24.75;30.67;100818.88;1727020;82;21167;-64
2021/04/22 11:24:03;;;;;;;4.60;2.83;;;;;;;24.49;29.99;100812.84;1751452;82;21181;-65
2021/04/22 11:26:35;;;;;;;3.30;2.37;;;;;;;24.66;30.46;100813.59;1737117;82;21277;-64
2021/04/22 11:29:18;;;;;;;3.33;2.58;;;;;;;24.85;30.18;100804.33;1737822;82;21189;-54
2021/04/22 11:31:50;;;;;;;3.08;2.62;;;;;;;25.01;29.77;100800.13;1725434;82;21147;-65
2021/04/22 11:34:31;;;;;;;2.95;2.22;;;;;;;25.18;29.90;100807.95;1735042;82;21182;-66
2021/04/22 11:36:58;;;;;;;;;;;;;;;25.45;29.88;100804.87;1740184;82;21170;-54
2021/04/22 11:39:34;;;;;;;3.42;2.20;;;;;;;25.55;28.97;100795.19;1737987;81;20151;-55
2021/04/22 11:42:03;;;;;;;2.95;2.12;;;;;;;25.58;28.50;100796.33;1738063;82;21305;-65
2021/04/22 11:44:43;;;;;;;4.78;2.22;;;;;;;25.60;29.11;100793.52;1737593;82;21199;-65
2021/04/22 11:47:23;;;;;;;2.42;2.10;;;;;;;25.74;28.74;100799.28;1734963;82;21284;-54
2021/04/22 11:50:07;;;;;;;2.08;1.82;;;;;;;25.78;28.19;100786.85;1816198;77;22570;-52
2021/04/22 11:52:56;;;;;;;3.55;2.42;;;;;;;25.63;28.21;100790.11;1782771;80;21111;-65
2021/04/22 11:55:36;;;;;;;8.98;2.80;;;;;;;25.44;28.65;100790.52;1756899;81;21151;-64
2021/04/22 11:58:14;;;;;;;3.47;2.22;;;;;;;25.32;28.82;100789.50;1761817;80;21115;-64
2021/04/22 12:00:53;;;;;;;2.65;1.75;;;;;;;25.35;28.03;100793.33;1762116;81;21143;-53
2021/04/22 12:03:27;;;;;;;2.98;1.98;;;;;;;25.29;28.08;100780.28;1761783;81;21569;-53
2021/04/22 12:05:57;;;;;;;2.65;2.00;;;;;;;25.36;29.25;100782.94;1758085;81;21281;-66